Time;durP1;ratioP1;P1;durP2;ratioP2;P2;SDS_P1;SDS_P2;PMS_P1;PMS_P2;Temp;Humidity;BMP_temperature;BMP_pressure;BME280_temperature;BME280_humidity;BME280_pressure;Samples;Min_cycle;Max_cycle;Signal;HPM_P1;HPM_P2
2022/05/05 00:01:37;;;;;;;14.90;4.68;;;9.40;99.90;;;;;;5060202;28;20059;-80
2022/05/05 00:04:03;;;;;;;12.23;5.25;;;9.40;99.90;;;;;;5058937;28;20391;-81
2022/05/05 00:06:28;;;;;;;7.75;3.80;;;9.30;99.90;;;;;;5061108;28;20094;-80
2022/05/05 00:08:54;;;;;;;4.72;4.38;;;9.30;99.90;;;;;;5057371;28;20056;-80
2022/05/05 00:14:24;;;;;;;4.47;3.50;;;9.30;99.90;;;;;;5036305;28;20110;-80
2022/05/05 00:16:52;;;;;;;12.95;4.90;;;9.30;99.90;;;;;;5060328;28;20048;-80
2022/05/05 00:19:17;;;;;;;5.65;4.22;;;9.30;99.90;;;;;;5060242;28;20044;-80
2022/05/05 00:21:43;;;;;;;9.60;3.95;;;9.30;99.90;;;;;;5060077;28;20048;-80
2022/05/05 00:24:09;;;;;;;8.85;5.25;;;9.30;99.90;;;;;;5059203;28;20036;-80
2022/05/05 00:26:34;;;;;;;9.75;6.53;;;9.20;99.90;;;;;;5060060;28;20113;-80
2022/05/05 00:29:00;;;;;;;7.15;6.28;;;9.20;99.90;;;;;;5060144;28;20458;-80
2022/05/05 00:31:26;;;;;;;19.30;6.75;;;9.20;99.90;;;;;;5059275;28;20387;-80
2022/05/05 00:33:52;;;;;;;10.50;5.43;;;9.20;99.90;;;;;;5060302;28;20465;-80
2022/05/05 00:36:17;;;;;;;7.78;5.43;;;9.10;99.90;;;;;;5059495;28;20146;-80
2022/05/05 00:38:43;;;;;;;6.30;5.72;;;9.10;99.90;;;;;;5059016;28;20043;-80
2022/05/05 00:41:09;;;;;;;6.63;4.78;;;9.10;99.90;;;;;;5059695;28;20451;-80
2022/05/05 00:43:35;;;;;;;4.40;3.90;;;9.00;99.90;;;;;;5059941;28;20037;-80
2022/05/05 00:46:02;;;;;;;4.43;4.00;;;9.00;99.90;;;;;;5051520;28;20044;-80
2022/05/05 00:48:28;;;;;;;6.22;3.58;;;9.00;99.90;;;;;;5038889;28;20041;-80
2022/05/05 00:50:54;;;;;;;6.85;4.13;;;9.00;99.90;;;;;;5040083;28;20272;-80
2022/05/05 00:53:20;;;;;;;7.20;4.32;;;8.90;99.90;;;;;;5038714;28;20045;-80
2022/05/05 00:55:46;;;;;;;3.53;3.00;;;8.90;99.90;;;;;;5038591;28;20048;-81
2022/05/05 00:58:14;;;;;;;5.05;3.42;;;8.90;99.90;;;;;;5037713;28;20056;-80
2022/05/05 01:00:39;;;;;;;4.82;3.42;;;8.80;99.90;;;;;;5039768;28;20032;-80
2022/05/05 01:03:09;;;;;;;6.68;4.18;;;8.80;99.90;;;;;;5039084;28;20060;-80
2022/05/05 01:05:39;;;;;;;6.38;3.97;;;8.80;99.90;;;;;;5040081;28;20501;-80
2022/05/05 01:08:05;;;;;;;5.75;4.07;;;8.70;99.90;;;;;;5038101;28;20057;-80
2022/05/05 01:10:30;;;;;;;4.78;4.38;;;8.70;99.90;;;;;;5039861;28;20043;-81
2022/05/05 01:12:56;;;;;;;6.55;3.95;;;8.60;99.90;;;;;;5039660;28;20124;-80
2022/05/05 01:15:22;;;;;;;8.45;3.95;;;8.60;99.90;;;;;;5039146;28;20129;-80
2022/05/05 01:17:48;;;;;;;3.22;2.92;;;8.60;99.90;;;;;;5040127;28;20103;-80
2022/05/05 01:20:16;;;;;;;7.35;4.20;;;8.60;99.90;;;;;;5038669;28;20281;-80
2022/05/05 01:22:42;;;;;;;5.38;4.38;;;8.60;99.90;;;;;;5039042;28;20120;-81
2022/05/05 01:28:10;;;;;;;4.43;4.03;;;8.60;99.90;;;;;;5039244;28;20053;-80
2022/05/05 01:30:46;;;;;;;12.40;4.57;;;8.50;99.90;;;;;;5039509;28;20041;-80
2022/05/05 01:33:19;;;;;;;7.05;4.20;;;8.50;99.90;;;;;;5039299;28;20076;-81
2022/05/05 01:35:45;;;;;;;;;;;8.50;99.90;;;;;;5039224;28;20045;-80
2022/05/05 01:38:13;;;;;;;12.50;4.57;;;8.50;99.90;;;;;;5038765;28;19940;-80
2022/05/05 01:40:39;;;;;;;6.13;3.92;;;8.40;99.90;;;;;;5037287;28;20221;-80
2022/05/05 01:43:08;;;;;;;4.75;2.80;;;8.40;99.90;;;;;;5038152;28;20041;-81
2022/05/05 01:45:34;;;;;;;2.97;2.63;;;8.40;99.90;;;;;;5039405;28;20120;-80
2022/05/05 01:48:00;;;;;;;7.18;4.03;;;8.30;99.90;;;;;;5059839;28;20037;-79
2022/05/05 01:50:26;;;;;;;10.38;3.25;;;8.40;99.90;;;;;;5059781;28;20560;-80
2022/05/05 01:52:53;;;;;;;5.65;3.78;;;8.30;99.90;;;;;;5058026;28;20408;-80
2022/05/05 01:55:20;;;;;;;4.10;3.80;;;8.40;99.90;;;;;;5059334;28;20041;-81
2022/05/05 01:57:46;;;;;;;18.63;5.15;;;8.30;99.90;;;;;;5058955;28;20432;-80
2022/05/05 02:00:12;;;;;;;6.45;3.85;;;8.30;99.90;;;;;;5057744;28;20119;-81
2022/05/05 02:02:37;;;;;;;3.55;2.55;;;8.30;99.90;;;;;;5058662;28;20054;-80
2022/05/05 02:05:03;;;;;;;4.57;3.85;;;8.30;99.90;;;;;;5058145;28;20564;-80
2022/05/05 02:07:29;;;;;;;3.80;3.50;;;8.20;99.90;;;;;;5058902;28;20059;-80
2022/05/05 02:09:54;;;;;;;3.85;3.42;;;8.20;99.90;;;;;;5058744;28;20571;-80
2022/05/05 02:12:20;;;;;;;4.03;3.72;;;8.20;99.90;;;;;;5058851;28;20518;-81
2022/05/05 02:14:45;;;;;;;9.80;4.88;;;8.20;99.90;;;;;;5057524;28;20123;-80
2022/05/05 02:17:11;;;;;;;6.70;4.35;;;8.20;99.90;;;;;;5057929;28;20488;-80
2022/05/05 02:19:37;;;;;;;4.90;4.50;;;8.20;99.90;;;;;;5057840;28;20044;-80
2022/05/05 02:22:02;;;;;;;6.13;3.78;;;8.20;99.90;;;;;;5057745;28;20344;-80
2022/05/05 02:24:28;;;;;;;4.45;4.05;;;8.10;99.90;;;;;;5058765;28;20040;-80
2022/05/05 02:26:54;;;;;;;4.60;4.13;;;8.20;99.90;;;;;;5059625;28;20047;-80
2022/05/05 02:29:19;;;;;;;10.63;4.10;;;8.10;99.90;;;;;;5058154;28;20037;-80
2022/05/05 02:31:45;;;;;;;6.03;3.08;;;8.10;99.90;;;;;;5057024;28;20411;-80
2022/05/05 02:34:10;;;;;;;6.50;3.83;;;8.10;99.90;;;;;;5058754;28;20070;-80
2022/05/05 02:39:20;;;;;;;4.63;3.20;;;8.10;99.90;;;;;;5062274;28;20602;-80
2022/05/05 02:41:46;;;;;;;5.47;4.00;;;8.10;99.90;;;;;;5060671;28;20036;-80
2022/05/05 02:44:11;;;;;;;4.25;3.80;;;8.10;99.90;;;;;;5060414;28;20036;-80
2022/05/05 02:46:37;;;;;;;4.47;3.78;;;8.10;99.90;;;;;;5051151;28;20067;-81
2022/05/05 02:49:02;;;;;;;7.60;5.20;;;8.10;99.90;;;;;;5039901;28;20049;-80
2022/05/05 02:51:28;;;;;;;10.75;4.72;;;8.00;99.90;;;;;;5042580;28;20048;-80
2022/05/05 02:56:38;;;;;;;11.68;3.72;;;8.00;99.90;;;;;;5041585;28;20055;-79
2022/05/05 02:59:03;;;;;;;3.88;3.53;;;8.00;99.90;;;;;;5040087;28;20488;-80
2022/05/05 03:01:29;;;;;;;6.90;4.90;;;8.00;99.90;;;;;;5042215;28;20600;-80
2022/05/05 03:03:54;;;;;;;7.40;5.78;;;8.00;99.90;;;;;;5040574;28;20443;-80
2022/05/05 03:06:20;;;;;;;7.70;4.80;;;8.00;99.90;;;;;;5041697;28;20041;-80
2022/05/05 03:08:46;;;;;;;7.53;4.30;;;7.90;99.90;;;;;;5039309;28;20068;-80
2022/05/05 03:11:11;;;;;;;3.15;2.90;;;7.90;99.90;;;;;;5041577;28;20049;-80
2022/05/05 03:13:37;;;;;;;5.90;4.00;;;7.90;99.90;;;;;;5040927;28;20036;-80
2022/05/05 03:16:04;;;;;;;4.30;4.00;;;7.90;99.90;;;;;;5040967;28;20148;-81
2022/05/05 03:18:29;;;;;;;4.95;3.92;;;7.90;99.90;;;;;;5040643;28;20041;-80
2022/05/05 03:20:55;;;;;;;7.35;3.50;;;7.90;99.90;;;;;;5041370;28;20533;-80
2022/05/05 03:23:20;;;;;;;7.82;5.25;;;7.90;99.90;;;;;;5039108;28;20053;-80
2022/05/05 03:25:46;;;;;;;5.50;3.70;;;7.80;99.90;;;;;;5041644;28;20572;-81
2022/05/05 03:28:13;;;;;;;3.75;3.42;;;7.80;99.90;;;;;;5039085;28;20037;-80
2022/05/05 03:30:40;;;;;;;4.53;4.13;;;7.80;99.90;;;;;;5041374;28;20049;-80
2022/05/05 03:33:06;;;;;;;5.78;4.50;;;7.80;99.90;;;;;;5039850;28;20036;-80
2022/05/05 03:35:32;;;;;;;3.85;3.55;;;7.80;99.90;;;;;;5041219;28;20094;-81
2022/05/05 03:37:59;;;;;;;4.72;3.58;;;7.80;99.90;;;;;;5040643;28;20049;-80
2022/05/05 03:40:24;;;;;;;3.65;3.35;;;7.70;99.90;;;;;;5040410;28;20040;-80
2022/05/05 03:42:50;;;;;;;6.88;4.43;;;7.70;99.90;;;;;;5041057;28;20041;-80
2022/05/05 03:45:16;;;;;;;7.28;4.30;;;7.60;99.90;;;;;;5039510;28;20107;-80
2022/05/05 03:47:41;;;;;;;4.50;4.18;;;7.60;99.90;;;;;;5019601;28;20103;-80
2022/05/05 03:50:08;;;;;;;6.75;5.50;;;7.60;99.90;;;;;;5019546;28;20124;-81
2022/05/05 03:52:34;;;;;;;2.92;2.67;;;7.60;99.90;;;;;;5018821;28;20424;-80
2022/05/05 03:54:59;;;;;;;4.63;3.50;;;7.60;99.90;;;;;;5021516;28;20048;-80
2022/05/05 03:57:25;;;;;;;5.63;3.10;;;7.60;99.90;;;;;;5002658;28;20573;-79
2022/05/05 03:59:51;;;;;;;3.78;3.45;;;7.60;99.90;;;;;;5019488;28;20124;-80
2022/05/05 04:02:16;;;;;;;10.60;5.35;;;7.60;99.90;;;;;;5020677;28;20123;-80
2022/05/05 04:04:42;;;;;;;5.85;5.25;;;7.60;99.90;;;;;;5020408;28;20069;-80
2022/05/05 04:07:08;;;;;;;5.70;4.13;;;7.50;99.90;;;;;;5018444;28;20073;-80
2022/05/05 04:09:33;;;;;;;7.03;4.35;;;7.50;99.90;;;;;;5020321;28;20256;-80
2022/05/05 04:11:59;;;;;;;5.13;3.83;;;7.60;99.90;;;;;;5019566;28;20081;-79
2022/05/05 04:14:25;;;;;;;4.60;4.13;;;7.50;99.90;;;;;;5020793;28;20034;-80
2022/05/05 04:16:51;;;;;;;3.70;2.90;;;7.50;99.90;;;;;;5020235;28;20122;-80
2022/05/05 04:19:16;;;;;;;5.40;3.45;;;7.50;99.90;;;;;;5020135;28;20049;-80
2022/05/05 04:21:42;;;;;;;6.13;4.78;;;7.50;99.90;;;;;;5018754;28;20640;-80
2022/05/05 04:24:07;;;;;;;4.28;3.88;;;7.50;99.90;;;;;;5018538;28;20128;-80
2022/05/05 04:26:33;;;;;;;6.03;3.83;;;7.50;99.90;;;;;;5020306;28;20033;-80
2022/05/05 04:28:59;;;;;;;6.25;4.80;;;7.50;99.90;;;;;;5020737;28;20095;-80
2022/05/05 04:31:27;;;;;;;6.05;4.05;;;7.50;99.90;;;;;;5018407;28;20041;-80
2022/05/05 04:33:53;;;;;;;6.30;4.38;;;7.50;99.90;;;;;;5020147;28;20057;-80
2022/05/05 04:36:18;;;;;;;4.00;3.63;;;7.50;99.90;;;;;;5018205;28;20241;-80
2022/05/05 04:38:44;;;;;;;11.15;3.10;;;7.50;99.90;;;;;;5018706;28;20040;-80
2022/05/05 04:41:09;;;;;;;6.85;4.47;;;7.50;99.90;;;;;;5019264;28;20057;-80
2022/05/05 04:43:35;;;;;;;4.60;3.58;;;7.50;99.90;;;;;;5020315;28;20042;-80
2022/05/05 04:46:01;;;;;;;3.05;2.85;;;7.50;99.90;;;;;;5032498;28;20487;-81
2022/05/05 04:48:26;;;;;;;4.85;3.92;;;7.50;99.90;;;;;;5059602;28;20044;-80
2022/05/05 04:50:52;;;;;;;3.40;3.03;;;7.50;99.90;;;;;;5058667;28;20048;-80
2022/05/05 04:53:17;;;;;;;4.43;3.75;;;7.50;99.90;;;;;;5058434;28;20052;-80
2022/05/05 04:55:43;;;;;;;5.80;3.88;;;7.50;99.90;;;;;;5059269;28;20240;-80
2022/05/05 04:58:08;;;;;;;6.18;3.83;;;7.50;99.90;;;;;;5059637;28;20044;-80
2022/05/05 05:00:36;;;;;;;3.30;3.08;;;7.60;99.90;;;;;;5058347;28;20107;-80
2022/05/05 05:03:01;;;;;;;4.55;3.65;;;7.60;99.90;;;;;;5059113;28;20056;-80
2022/05/05 05:05:27;;;;;;;15.05;5.05;;;7.70;99.90;;;;;;5060434;28;20540;-80
2022/05/05 05:07:52;;;;;;;5.53;4.07;;;7.70;99.90;;;;;;5056954;28;20312;-80
2022/05/05 05:10:18;;;;;;;6.95;4.35;;;7.70;99.90;;;;;;5059287;28;20059;-80
2022/05/05 05:12:44;;;;;;;20.05;4.32;;;7.80;99.90;;;;;;5059295;28;20182;-80
2022/05/05 05:15:10;;;;;;;4.22;3.47;;;7.90;99.90;;;;;;5058122;28;20415;-81
2022/05/05 05:17:36;;;;;;;4.65;4.20;;;7.90;99.90;;;;;;5060078;28;20046;-80
2022/05/05 05:20:03;;;;;;;8.13;4.10;;;8.00;99.90;;;;;;5058509;28;20542;-80
2022/05/05 05:22:28;;;;;;;6.43;4.20;;;8.00;99.90;;;;;;5058870;28;20502;-80
2022/05/05 05:24:54;;;;;;;4.95;4.15;;;8.10;99.90;;;;;;5059455;28;20064;-80
2022/05/05 05:27:19;;;;;;;11.90;4.22;;;8.10;99.90;;;;;;5058994;28;20687;-80
2022/05/05 05:29:45;;;;;;;5.95;4.63;;;8.20;99.90;;;;;;5059771;28;20486;-80
2022/05/05 05:32:11;;;;;;;5.90;4.30;;;8.20;99.90;;;;;;5058641;28;20283;-80
2022/05/05 05:34:36;;;;;;;19.42;5.10;;;8.30;99.90;;;;;;5059296;28;20044;-80
2022/05/05 05:37:03;;;;;;;4.25;3.65;;;8.30;99.90;;;;;;5056807;28;20059;-80
2022/05/05 05:39:30;;;;;;;5.75;3.47;;;8.40;99.90;;;;;;5059293;28;20535;-80
2022/05/05 05:41:56;;;;;;;5.35;3.15;;;8.40;99.90;;;;;;5058797;28;20119;-80
2022/05/05 05:44:21;;;;;;;4.28;3.80;;;8.40;99.90;;;;;;5058471;28;20127;-80
2022/05/05 05:46:47;;;;;;;4.82;4.45;;;8.50;99.90;;;;;;5046722;28;20041;-80
2022/05/05 05:49:13;;;;;;;4.47;4.13;;;8.50;99.90;;;;;;5039076;28;20403;-80
2022/05/05 05:51:38;;;;;;;4.70;3.92;;;8.60;99.90;;;;;;5037709;28;20052;-80
2022/05/05 05:54:04;;;;;;;12.77;4.10;;;8.60;99.90;;;;;;5039141;28;20041;-81
2022/05/05 05:56:30;;;;;;;10.32;4.63;;;8.60;99.90;;;;;;5039261;28;20115;-80
2022/05/05 05:58:57;;;;;;;5.20;4.07;;;8.60;99.90;;;;;;5021277;28;20151;-80
2022/05/05 06:03:53;;;;;;;5.53;4.43;;;8.70;99.90;;;;;;5039118;28;20102;-80
2022/05/05 06:04:09;;;;;;;10.95;4.45;;;8.70;99.90;;;;;;5037457;28;20080;-80
2022/05/05 06:06:35;;;;;;;7.25;4.78;;;8.70;99.90;;;;;;5037077;28;20037;-80
2022/05/05 06:09:00;;;;;;;4.85;4.45;;;8.70;99.90;;;;;;5038779;28;20586;-80
2022/05/05 06:11:26;;;;;;;9.35;4.93;;;8.80;99.90;;;;;;5040726;28;20041;-80
2022/05/05 06:13:52;;;;;;;6.03;5.25;;;8.80;99.90;;;;;;5042834;28;20098;-80
2022/05/05 06:16:17;;;;;;;7.47;4.13;;;8.90;99.90;;;;;;5042662;28;20535;-79
2022/05/05 06:18:43;;;;;;;6.07;5.15;;;8.90;99.90;;;;;;5041414;28;20084;-80
2022/05/05 06:21:08;;;;;;;16.98;4.78;;;8.90;99.90;;;;;;5042295;28;20245;-80
2022/05/05 06:23:37;;;;;;;14.93;4.72;;;9.00;99.90;;;;;;5041530;28;20037;-80
2022/05/05 06:26:05;;;;;;;7.03;5.20;;;9.00;99.90;;;;;;5042464;28;20055;-81
2022/05/05 06:28:33;;;;;;;7.00;5.38;;;9.00;99.90;;;;;;5042435;28;20098;-80
2022/05/05 06:30:58;;;;;;;5.38;4.85;;;9.10;99.90;;;;;;5041895;28;20055;-81
2022/05/05 06:33:24;;;;;;;7.97;5.05;;;9.10;99.90;;;;;;5041730;28;20416;-80
2022/05/05 06:35:49;;;;;;;6.05;5.50;;;9.20;99.90;;;;;;5042217;28;20131;-80
2022/05/05 06:38:16;;;;;;;5.90;4.35;;;9.20;99.90;;;;;;5039590;28;20051;-80
2022/05/05 06:40:42;;;;;;;4.95;4.43;;;9.30;99.90;;;;;;5042100;28;20044;-80
2022/05/05 06:43:08;;;;;;;6.40;4.63;;;9.30;99.90;;;;;;5042465;28;20090;-80
2022/05/05 06:45:33;;;;;;;6.15;4.18;;;9.30;99.90;;;;;;5044177;28;20115;-80
2022/05/05 06:47:59;;;;;;;6.40;4.97;;;9.40;99.90;;;;;;5062440;28;20128;-80
2022/05/05 06:50:25;;;;;;;7.57;5.82;;;9.40;99.90;;;;;;5061983;28;20033;-80
2022/05/05 06:52:51;;;;;;;19.70;4.88;;;9.50;99.90;;;;;;5060929;28;20450;-80
2022/05/05 06:55:18;;;;;;;6.00;4.45;;;9.50;99.90;;;;;;5062069;28;20036;-80
2022/05/05 06:57:44;;;;;;;5.13;4.72;;;9.60;99.90;;;;;;5060051;28;20769;-80
2022/05/05 07:00:11;;;;;;;4.32;3.92;;;9.60;99.90;;;;;;5061654;28;20090;-81
2022/05/05 07:02:37;;;;;;;6.20;5.32;;;9.70;99.90;;;;;;5060438;28;20056;-80
2022/05/05 07:05:44;;;;;;;6.05;4.78;;;9.70;99.90;;;;;;5060897;28;20091;-81
2022/05/05 07:07:51;;;;;;;10.80;5.22;;;9.80;99.90;;;;;;5057275;28;20063;-80
2022/05/05 07:13:02;;;;;;;6.53;4.95;;;9.90;99.90;;;;;;5060025;28;20126;-80
2022/05/05 07:15:28;;;;;;;8.05;6.15;;;10.00;99.90;;;;;;5061258;28;20040;-80
2022/05/05 07:17:53;;;;;;;4.22;3.40;;;10.00;99.90;;;;;;5061402;28;20384;-80
2022/05/05 07:20:19;;;;;;;5.70;4.40;;;10.10;99.90;;;;;;5060292;28;20044;-80
2022/05/05 07:22:46;;;;;;;3.88;3.58;;;10.20;99.90;;;;;;5059954;28;20556;-80
2022/05/05 07:25:11;;;;;;;8.88;4.28;;;10.20;99.90;;;;;;5061289;28;20041;-80
2022/05/05 07:27:39;;;;;;;5.82;4.50;;;10.20;99.90;;;;;;5061737;28;20339;-80
2022/05/05 07:30:05;;;;;;;6.15;4.10;;;10.30;99.90;;;;;;5061223;28;20048;-81
2022/05/05 07:32:30;;;;;;;10.80;4.65;;;10.30;99.90;;;;;;5060386;28;20438;-81
2022/05/05 07:34:56;;;;;;;7.95;4.90;;;10.40;99.90;;;;;;5059934;28;20041;-80
2022/05/05 07:37:22;;;;;;;7.82;4.97;;;10.40;99.90;;;;;;5060272;28;20127;-80
2022/05/05 07:39:47;;;;;;;17.15;4.95;;;10.40;99.90;;;;;;5060939;28;20537;-80
2022/05/05 07:42:13;;;;;;;7.65;4.25;;;10.50;99.90;;;;;;5059204;28;20043;-80
2022/05/05 07:44:38;;;;;;;6.57;3.72;;;10.60;99.90;;;;;;5061087;28;20045;-80
2022/05/05 07:47:04;;;;;;;6.15;4.13;;;10.60;99.90;;;;;;5044325;28;20045;-80
2022/05/05 07:49:29;;;;;;;12.73;6.28;;;10.60;99.90;;;;;;5041273;28;20045;-80
2022/05/05 07:51:55;;;;;;;11.63;6.03;;;10.70;99.90;;;;;;5022602;28;20518;-80
2022/05/05 07:54:42;;;;;;;21.35;5.93;;;10.70;99.90;;;;;;5040560;28;20048;-80
2022/05/05 07:57:10;;;;;;;7.93;5.38;;;10.80;99.90;;;;;;5039654;28;20048;-80
2022/05/05 07:59:36;;;;;;;8.07;4.20;;;10.90;99.90;;;;;;5040867;28;20128;-81
2022/05/05 08:02:09;;;;;;;6.18;3.88;;;11.00;99.90;;;;;;5039229;28;20132;-80
2022/05/05 08:04:34;;;;;;;12.48;6.03;;;11.10;99.90;;;;;;5040526;28;20455;-80
2022/05/05 08:07:00;;;;;;;6.88;4.18;;;11.10;99.90;;;;;;5040333;28;20037;-80
2022/05/05 08:09:26;;;;;;;7.57;4.13;;;11.20;99.90;;;;;;5038885;28;20075;-82
2022/05/05 08:11:52;;;;;;;5.15;4.65;;;11.20;99.90;;;;;;5039379;28;20041;-82
2022/05/05 08:14:17;;;;;;;9.27;4.15;;;11.30;99.90;;;;;;5040370;28;20236;-82
2022/05/05 08:16:43;;;;;;;6.82;4.50;;;11.30;99.90;;;;;;5038816;28;20480;-82
2022/05/05 08:19:09;;;;;;;7.78;3.75;;;11.40;99.90;;;;;;5040302;28;20550;-81
2022/05/05 08:21:34;;;;;;;5.70;4.55;;;11.40;99.90;;;;;;5039476;28;20052;-80
2022/05/05 08:29:28;;;;;;;9.40;4.78;;;11.50;99.90;;;;;;5038751;28;20320;-81
2022/05/05 08:31:54;;;;;;;11.77;4.65;;;11.60;99.90;;;;;;5040045;28;20451;-81
2022/05/05 08:34:19;;;;;;;5.65;3.88;;;11.70;99.90;;;;;;5039363;28;20195;-81
2022/05/05 08:36:45;;;;;;;6.53;3.90;;;11.70;99.90;;;;;;5038950;28;20336;-80
2022/05/05 08:39:11;;;;;;;5.45;3.72;;;11.80;99.90;;;;;;5038445;28;20041;-81
2022/05/05 08:41:39;;;;;;;7.53;4.57;;;11.90;99.90;;;;;;5039986;28;20044;-80
2022/05/05 08:44:04;;;;;;;10.48;4.13;;;12.00;99.90;;;;;;5039708;28;20044;-81
2022/05/05 08:46:33;;;;;;;5.20;3.08;;;12.10;99.90;;;;;;5050810;28;20043;-81
2022/05/05 08:49:04;;;;;;;6.32;3.55;;;12.10;99.90;;;;;;5058169;28;20128;-80
2022/05/05 08:51:44;;;;;;;5.38;3.17;;;12.20;99.90;;;;;;5059551;28;20033;-81
2022/05/05 08:54:16;;;;;;;7.15;4.07;;;12.20;99.90;;;;;;5057366;28;20046;-80
2022/05/05 08:56:45;;;;;;;15.98;3.05;;;12.20;99.90;;;;;;5060186;28;20467;-81
2022/05/05 08:59:13;;;;;;;3.28;2.28;;;12.20;99.90;;;;;;5057452;28;20040;-81
2022/05/05 09:01:40;;;;;;;4.90;2.97;;;12.30;99.90;;;;;;5059475;28;20111;-80
2022/05/05 09:04:06;;;;;;;7.32;2.55;;;12.30;99.90;;;;;;5058893;28;20048;-81
2022/05/05 09:06:44;;;;;;;4.70;2.97;;;12.30;99.90;;;;;;5059467;28;20044;-80
2022/05/05 09:09:23;;;;;;;3.38;2.50;;;12.40;99.90;;;;;;5059299;28;20070;-81
2022/05/05 09:12:09;;;;;;;2.95;2.65;;;12.40;99.90;;;;;;5058597;28;20124;-81
2022/05/05 09:14:39;;;;;;;2.25;2.05;;;12.50;99.90;;;;;;5041456;28;20045;-81
2022/05/05 09:17:06;;;;;;;5.47;2.83;;;12.50;99.90;;;;;;5058415;28;20512;-81
2022/05/05 09:19:37;;;;;;;2.80;2.58;;;12.50;99.90;;;;;;5057666;28;20244;-81
2022/05/05 09:22:04;;;;;;;3.33;2.67;;;12.50;99.90;;;;;;5057276;28;20052;-80
2022/05/05 09:24:36;;;;;;;3.80;2.47;;;12.50;99.90;;;;;;5057858;28;20049;-80
2022/05/05 09:27:28;;;;;;;1.77;1.67;;;12.50;99.90;;;;;;5059026;28;20071;-81
2022/05/05 09:30:12;;;;;;;9.43;3.10;;;12.60;99.90;;;;;;5059558;28;20071;-81
2022/05/05 09:32:42;;;;;;;7.30;2.30;;;12.60;99.90;;;;;;5057602;28;20241;-80
2022/05/05 09:35:18;;;;;;;3.58;2.42;;;12.60;99.90;;;;;;5059138;28;20075;-81
2022/05/05 09:37:52;;;;;;;3.60;2.80;;;12.70;99.90;;;;;;5058488;28;20036;-81
2022/05/05 09:40:23;;;;;;;1.98;1.58;;;12.70;99.90;;;;;;5058712;28;20040;-81
2022/05/05 09:42:51;;;;;;;8.45;2.58;;;12.80;99.90;;;;;;5058602;28;20034;-81
2022/05/05 09:45:30;;;;;;;4.07;2.22;;;12.90;99.90;;;;;;5060035;28;20043;-80
2022/05/05 09:48:04;;;;;;;2.80;2.60;;;13.00;99.90;;;;;;5024006;28;20075;-81
2022/05/05 09:50:42;;;;;;;4.30;2.78;;;13.10;99.90;;;;;;5021361;28;20492;-81
2022/05/05 09:59:29;;;;;;;8.20;3.47;;;13.40;99.90;;;;;;5023411;28;20114;-80
2022/05/05 10:02:01;;;;;;;;;;;13.40;99.90;;;;;;5022863;28;20049;-80
2022/05/05 10:04:26;;;;;;;6.90;2.83;;;13.50;99.90;;;;;;5024229;28;19927;-81
2022/05/05 10:06:54;;;;;;;6.68;2.92;;;13.60;99.90;;;;;;5021889;28;20458;-81
2022/05/05 10:09:20;;;;;;;2.88;2.50;;;13.60;99.90;;;;;;5022530;28;20508;-81
2022/05/05 10:11:47;;;;;;;3.95;3.53;;;13.70;99.90;;;;;;5022657;28;20622;-81
2022/05/05 10:14:16;;;;;;;2.88;2.58;;;13.80;99.90;;;;;;5022629;28;20044;-81
2022/05/05 10:16:42;;;;;;;5.18;3.35;;;13.80;99.90;;;;;;5022231;28;20055;-80
2022/05/05 10:19:09;;;;;;;5.55;2.97;;;13.80;99.90;;;;;;5022448;28;20476;-82
2022/05/05 10:21:58;;;;;;;7.40;3.30;;;13.90;99.90;;;;;;5022016;28;20499;-81
2022/05/05 10:24:31;;;;;;;5.00;3.35;;;13.90;99.90;;;;;;5022678;28;20088;-81
2022/05/05 10:27:02;;;;;;;6.70;3.38;;;13.90;99.90;;;;;;5022513;28;20516;-82
2022/05/05 10:29:31;;;;;;;8.37;4.07;;;13.90;99.90;;;;;;5005422;28;20049;-83
2022/05/05 10:32:11;;;;;;;5.15;4.40;;;14.00;99.90;;;;;;5022637;28;20484;-81
2022/05/05 10:34:39;;;;;;;7.57;4.55;;;14.00;99.90;;;;;;5022745;28;20056;-83
2022/05/05 10:37:13;;;;;;;6.90;3.90;;;14.00;99.90;;;;;;5019645;28;20085;-84
2022/05/05 10:39:47;;;;;;;7.40;4.07;;;14.10;99.90;;;;;;5022756;28;20068;-83
2022/05/05 10:42:16;;;;;;;6.55;3.42;;;14.10;99.90;;;;;;5022482;28;20053;-83
2022/05/05 10:45:04;;;;;;;8.13;4.25;;;14.10;99.90;;;;;;5022163;28;20048;-83
2022/05/05 10:47:52;;;;;;;5.45;3.35;;;14.10;99.90;;;;;;5058314;28;20059;-83
2022/05/05 10:51:02;;;;;;;10.35;3.78;;;14.10;99.90;;;;;;5061544;28;20044;-82
2022/05/05 10:53:41;;;;;;;6.18;4.13;;;14.10;99.90;;;;;;5044820;28;20043;-81
2022/05/05 10:56:30;;;;;;;7.15;4.07;;;14.10;99.90;;;;;;5059463;28;20178;-81
2022/05/05 10:59:03;;;;;;;4.85;3.72;;;14.30;99.90;;;;;;5062513;28;20047;-81
2022/05/05 11:01:59;;;;;;;8.93;3.83;;;14.30;99.90;;;;;;5060668;28;20067;-81
2022/05/05 11:04:29;;;;;;;9.80;3.25;;;14.40;99.90;;;;;;5051551;28;20317;-81
2022/05/05 11:07:30;;;;;;;4.82;3.25;;;14.50;99.90;;;;;;5060321;28;20044;-82
2022/05/05 11:09:57;;;;;;;6.32;4.13;;;14.60;99.90;;;;;;5060566;28;20076;-81
2022/05/05 11:12:24;;;;;;;8.07;4.65;;;14.70;99.90;;;;;;5043332;28;20056;-81
2022/05/05 11:23:31;;;;;;;13.15;5.22;;;14.90;99.90;;;;;;5060144;28;20044;-82
2022/05/05 11:25:57;;;;;;;9.02;4.97;;;14.90;99.90;;;;;;5062116;28;20037;-81
2022/05/05 11:28:27;;;;;;;5.85;4.35;;;15.00;99.90;;;;;;5060921;28;20041;-81
2022/05/05 11:30:53;;;;;;;9.30;5.25;;;15.00;99.90;;;;;;5061092;28;20044;-81
2022/05/05 11:33:19;;;;;;;11.15;5.72;;;15.10;99.90;;;;;;5060834;28;20040;-81
2022/05/05 11:35:56;;;;;;;10.85;5.45;;;15.20;99.90;;;;;;5060294;28;20041;-82
2022/05/05 11:38:23;;;;;;;14.13;7.13;;;15.20;99.90;;;;;;5060832;28;20048;-81
2022/05/05 11:40:58;;;;;;;9.32;6.32;;;15.30;99.90;;;;;;5061255;28;20653;-81
2022/05/05 11:46:08;;;;;;;9.43;6.18;;;15.40;99.90;;;;;;5052026;28;20075;-81
2022/05/05 11:48:34;;;;;;;7.10;4.70;;;15.40;99.90;;;;;;5039432;28;20049;-82
2022/05/05 11:51:06;;;;;;;11.82;5.22;;;15.50;99.90;;;;;;5039439;28;20337;-81
2022/05/05 11:53:31;;;;;;;10.85;5.75;;;15.60;99.90;;;;;;5041117;28;20068;-82
2022/05/05 11:55:57;;;;;;;12.80;6.03;;;15.60;99.90;;;;;;5041124;28;20593;-81
2022/05/05 12:04:00;;;;;;;11.43;6.63;;;15.80;99.90;;;;;;5039177;28;20086;-81
2022/05/05 12:06:27;;;;;;;14.32;5.15;;;15.80;99.90;;;;;;5040375;28;20045;-81
2022/05/05 12:08:56;;;;;;;11.95;4.75;;;15.90;99.90;;;;;;5039000;28;20404;-81
2022/05/05 12:11:25;;;;;;;8.05;5.13;;;15.90;99.90;;;;;;5040940;28;20041;-81
2022/05/05 12:13:51;;;;;;;13.18;5.85;;;15.90;99.90;;;;;;5040304;28;20045;-81
2022/05/05 12:16:19;;;;;;;9.35;4.95;;;15.90;99.90;;;;;;5040457;28;20127;-81
2022/05/05 12:18:54;;;;;;;8.18;5.88;;;16.00;99.90;;;;;;5040538;28;20210;-81
2022/05/05 12:21:24;;;;;;;13.10;6.25;;;15.90;99.90;;;;;;5037743;28;20045;-81
2022/05/05 12:24:00;;;;;;;8.43;5.60;;;16.00;99.90;;;;;;5040839;28;20037;-81
2022/05/05 12:26:35;;;;;;;9.30;5.28;;;16.00;99.90;;;;;;5039890;28;20041;-81
2022/05/05 12:29:01;;;;;;;27.83;14.50;;;16.00;99.90;;;;;;5038571;28;20116;-82
2022/05/05 12:31:30;;;;;;;7.70;4.10;;;16.10;99.90;;;;;;5039229;28;20041;-81
2022/05/05 12:33:57;;;;;;;10.05;6.43;;;16.10;99.90;;;;;;5040657;28;20045;-81
2022/05/05 12:36:29;;;;;;;10.90;5.95;;;16.30;99.90;;;;;;5038869;28;20048;-82
2022/05/05 12:39:13;;;;;;;8.75;5.45;;;16.30;99.90;;;;;;5039364;28;20154;-81
2022/05/05 12:41:56;;;;;;;9.45;5.45;;;16.30;99.90;;;;;;5038871;28;20264;-81
2022/05/05 12:44:22;;;;;;;11.77;4.68;;;16.40;99.90;;;;;;5039200;28;20344;-81
2022/05/05 12:47:02;;;;;;;10.27;5.55;;;16.40;99.90;;;;;;5052214;28;20094;-81
2022/05/05 12:49:38;;;;;;;11.23;5.60;;;16.50;99.90;;;;;;5060711;28;20119;-81
2022/05/05 12:52:06;;;;;;;12.45;5.22;;;16.50;99.90;;;;;;5057482;28;20459;-82
2022/05/05 13:00:11;;;;;;;9.77;5.75;;;16.60;99.90;;;;;;5058111;28;20417;-81
2022/05/05 13:02:36;;;;;;;7.10;5.03;;;16.60;99.90;;;;;;5058356;28;20040;-82
2022/05/05 13:05:04;;;;;;;7.28;4.65;;;16.70;99.90;;;;;;5059549;28;20450;-82
2022/05/05 13:07:29;;;;;;;11.80;5.53;;;16.70;99.90;;;;;;5058935;28;20553;-82
2022/05/05 13:09:55;;;;;;;19.98;4.65;;;16.80;99.90;;;;;;5057788;28;20187;-81
2022/05/05 13:12:20;;;;;;;7.32;5.05;;;16.80;99.90;;;;;;5059135;28;20360;-81
2022/05/05 13:14:46;;;;;;;10.77;6.18;;;16.90;99.90;;;;;;5059773;28;20402;-82
2022/05/05 13:17:12;;;;;;;6.07;4.18;;;17.00;99.90;;;;;;5058629;28;20428;-81
2022/05/05 13:19:37;;;;;;;11.95;5.97;;;17.00;99.90;;;;;;5058928;28;20033;-81
2022/05/05 13:22:03;;;;;;;8.43;6.13;;;17.00;99.90;;;;;;5058147;28;20055;-82
2022/05/05 13:24:29;;;;;;;4.95;4.07;;;17.00;99.90;;;;;;5059905;28;20047;-82
2022/05/05 13:26:55;;;;;;;12.13;5.45;;;17.00;99.90;;;;;;5059836;28;20048;-81
2022/05/05 13:29:21;;;;;;;6.45;4.18;;;17.00;99.90;;;;;;5059302;28;20045;-81
2022/05/05 13:31:47;;;;;;;14.13;6.22;;;17.00;99.90;;;;;;5059315;28;20040;-81
2022/05/05 13:34:13;;;;;;;6.72;5.28;;;17.00;99.90;;;;;;5059375;28;20029;-82
2022/05/05 13:36:39;;;;;;;5.47;3.72;;;17.00;99.90;;;;;;5057774;28;20365;-81
2022/05/05 13:39:05;;;;;;;6.88;5.20;;;17.10;99.90;;;;;;5058939;28;20509;-81
2022/05/05 13:41:32;;;;;;;9.75;5.13;;;17.10;99.90;;;;;;5059177;28;20094;-80
2022/05/05 13:43:57;;;;;;;9.13;4.50;;;17.10;99.90;;;;;;5059423;28;20068;-81